createdAt,value
2023-05-24T00:18:13.904Z,19.53
2023-05-24T00:20:41.125Z,19.38
2023-05-24T00:23:08.305Z,19.53
2023-05-24T00:25:35.411Z,19.59
2023-05-24T00:28:02.184Z,19.61
2023-05-24T00:30:28.973Z,19.62
2023-05-24T00:32:55.932Z,19.54
2023-05-24T00:35:23.412Z,19.51
2023-05-24T00:37:50.823Z,19.53
2023-05-24T00:40:17.864Z,19.50
2023-05-24T00:42:44.625Z,19.50
2023-05-24T00:45:11.605Z,19.43
2023-05-24T00:47:38.609Z,19.46
2023-05-24T00:50:07.702Z,19.41
2023-05-24T00:52:36.412Z,19.43
2023-05-24T00:55:03.573Z,19.45
2023-05-24T00:57:30.606Z,19.47
2023-05-24T00:59:57.447Z,19.31
2023-05-24T01:02:25.450Z,19.35
2023-05-24T01:04:52.334Z,19.34
2023-05-24T01:07:23.648Z,19.35
2023-05-24T01:10:08.799Z,19.25
2023-05-24T01:13:10.644Z,19.32
2023-05-24T01:15:54.427Z,19.17
2023-05-24T01:18:30.395Z,19.17
2023-05-24T01:21:14.444Z,19.02
2023-05-24T01:24:14.403Z,18.98
2023-05-24T01:26:59.608Z,18.97
2023-05-24T01:29:27.124Z,18.98
2023-05-24T01:31:54.069Z,19.03
2023-05-24T01:34:21.011Z,18.90
2023-05-24T01:36:47.791Z,19.03
2023-05-24T01:39:14.649Z,19.00
2023-05-24T01:41:57.147Z,18.93
2023-05-24T01:44:53.139Z,18.85
2023-05-24T01:47:32.060Z,18.80
2023-05-24T01:50:07.281Z,18.77
2023-05-24T01:52:35.946Z,18.77
2023-05-24T01:55:04.866Z,18.76
2023-05-24T01:57:34.865Z,18.71
2023-05-24T02:00:03.615Z,18.61
2023-05-24T02:02:39.809Z,18.64
2023-05-24T02:05:07.701Z,18.60
2023-05-24T02:07:35.157Z,18.59
2023-05-24T02:10:02.197Z,18.58
2023-05-24T02:12:29.127Z,18.53
2023-05-24T02:14:57.286Z,18.50
2023-05-24T02:17:27.037Z,18.54
2023-05-24T02:19:54.013Z,18.60
2023-05-24T02:22:22.390Z,18.66
2023-05-24T02:24:49.293Z,18.63
2023-05-24T02:27:16.141Z,18.63
2023-05-24T02:29:43.152Z,18.55
2023-05-24T02:32:10.047Z,18.52
2023-05-24T02:34:37.195Z,18.59
2023-05-24T02:37:04.827Z,18.63
2023-05-24T02:39:31.896Z,18.62
2023-05-24T02:41:58.882Z,18.63
2023-05-24T02:44:25.760Z,18.71
2023-05-24T02:46:52.621Z,18.58
2023-05-24T02:49:19.393Z,18.64
2023-05-24T02:51:46.685Z,18.64
2023-05-24T02:54:14.880Z,18.45
2023-05-24T02:56:41.771Z,18.47
2023-05-24T02:59:08.767Z,18.40
2023-05-24T03:01:35.786Z,18.41
2023-05-24T03:04:03.410Z,18.45
2023-05-24T03:06:31.166Z,18.49
2023-05-24T03:08:58.555Z,18.49
2023-05-24T03:11:27.317Z,18.42
2023-05-24T03:13:54.162Z,18.43
2023-05-24T03:16:21.216Z,18.44
2023-05-24T03:18:50.818Z,18.47
2023-05-24T03:21:20.897Z,18.45
2023-05-24T03:23:48.083Z,18.42
2023-05-24T03:26:14.909Z,18.49
2023-05-24T03:28:42.014Z,18.46
2023-05-24T03:31:09.448Z,18.46
2023-05-24T03:33:37.201Z,18.43
2023-05-24T03:36:04.648Z,18.38
2023-05-24T03:38:33.688Z,18.43
2023-05-24T03:41:00.841Z,18.41
2023-05-24T03:43:28.872Z,18.40
2023-05-24T03:45:58.120Z,18.41
2023-05-24T03:48:25.028Z,18.31
2023-05-24T03:50:52.924Z,18.34
2023-05-24T03:53:22.868Z,18.24
2023-05-24T03:55:50.178Z,18.21
2023-05-24T03:58:16.984Z,18.27
2023-05-24T04:00:44.804Z,18.26
2023-05-24T04:03:13.104Z,18.15
2023-05-24T04:05:40.152Z,18.15
2023-05-24T04:08:07.094Z,18.21
2023-05-24T04:10:37.017Z,18.20
2023-05-24T04:13:03.994Z,18.14
2023-05-24T04:15:31.326Z,18.09
2023-05-24T04:17:58.182Z,18.08
2023-05-24T04:20:25.814Z,18.12
2023-05-24T04:22:52.941Z,18.09
2023-05-24T04:25:20.423Z,18.15
2023-05-24T04:27:51.025Z,18.03
2023-05-24T04:30:17.954Z,18.06
2023-05-24T04:32:44.764Z,18.18
2023-05-24T04:35:12.330Z,18.24
2023-05-24T04:37:40.484Z,18.32
2023-05-24T04:40:08.271Z,18.17
2023-05-24T04:42:35.584Z,18.21
2023-05-24T04:45:02.487Z,18.16
2023-05-24T04:47:29.414Z,18.07
2023-05-24T04:49:56.240Z,18.18
2023-05-24T04:52:23.105Z,18.26
2023-05-24T04:54:51.128Z,18.31
2023-05-24T04:57:18.055Z,18.34
2023-05-24T04:59:45.062Z,18.36
2023-05-24T05:02:12.131Z,18.43
2023-05-24T05:04:38.999Z,18.49
2023-05-24T05:07:06.234Z,18.32
2023-05-24T05:09:33.086Z,18.35
2023-05-24T05:11:59.934Z,18.40
2023-05-24T05:14:26.778Z,18.40
2023-05-24T05:16:53.645Z,18.45
2023-05-24T05:19:20.917Z,18.48
2023-05-24T05:21:47.818Z,18.52
2023-05-24T05:24:16.237Z,18.53
2023-05-24T05:26:43.110Z,18.60
2023-05-24T05:29:09.921Z,18.65
2023-05-24T05:31:37.106Z,18.66
2023-05-24T05:34:03.979Z,18.71
2023-05-24T05:36:31.189Z,18.75
2023-05-24T05:38:58.054Z,18.88
2023-05-24T05:41:24.917Z,18.92
2023-05-24T05:43:51.730Z,18.98
2023-05-24T05:46:20.959Z,19.09
2023-05-24T05:48:47.836Z,19.18
2023-05-24T05:51:14.648Z,19.11
2023-05-24T05:53:41.400Z,19.18
2023-05-24T05:56:08.293Z,19.17
2023-05-24T05:58:35.091Z,19.19
2023-05-24T06:01:01.950Z,19.23
2023-05-24T06:03:29.021Z,19.21
2023-05-24T06:05:56.032Z,19.24
2023-05-24T06:08:22.947Z,19.27
2023-05-24T06:10:52.006Z,19.52
2023-05-24T06:13:19.745Z,19.51
2023-05-24T06:15:46.694Z,19.59
2023-05-24T06:18:13.786Z,19.66
2023-05-24T06:20:40.804Z,19.79
2023-05-24T06:23:07.864Z,19.86
2023-05-24T06:25:35.138Z,19.87
2023-05-24T06:28:01.964Z,19.84
2023-05-24T06:30:28.771Z,19.86
2023-05-24T06:32:56.470Z,19.90
2023-05-24T06:35:23.328Z,20.04
2023-05-24T06:37:50.201Z,20.05
2023-05-24T06:40:17.078Z,20.07
2023-05-24T06:42:43.951Z,20.22
2023-05-24T06:45:11.324Z,20.17
2023-05-24T06:47:38.422Z,20.30
2023-05-24T06:50:06.010Z,20.39
2023-05-24T06:52:32.839Z,20.39
2023-05-24T06:54:59.665Z,20.51
2023-05-24T06:57:27.095Z,20.56
2023-05-24T06:59:53.982Z,20.61
2023-05-24T07:02:26.670Z,20.62
2023-05-24T07:04:53.765Z,20.64
2023-05-24T07:07:21.377Z,20.62
2023-05-24T07:09:50.094Z,20.54
2023-05-24T07:12:17.047Z,20.62
2023-05-24T07:14:43.883Z,20.75
2023-05-24T07:17:10.817Z,20.86
2023-05-24T07:19:37.800Z,20.97
2023-05-24T07:22:04.648Z,21.18
2023-05-24T07:24:31.527Z,21.32
2023-05-24T07:26:58.543Z,21.38
2023-05-24T07:29:26.123Z,21.49
2023-05-24T07:31:55.921Z,21.61
2023-05-24T07:34:23.887Z,21.52
2023-05-24T07:36:50.668Z,21.67
2023-05-24T07:39:17.560Z,21.81
2023-05-24T07:41:44.914Z,21.80
2023-05-24T07:44:12.274Z,21.98
2023-05-24T07:46:39.550Z,22.05
2023-05-24T07:49:07.083Z,22.19
2023-05-24T07:51:34.120Z,22.35
2023-05-24T07:54:01.133Z,22.41
2023-05-24T07:56:28.034Z,22.55
2023-05-24T07:58:59.450Z,22.52
2023-05-24T08:01:26.267Z,22.49
2023-05-24T08:03:53.196Z,22.66
2023-05-24T08:06:20.238Z,22.59
2023-05-24T08:08:47.826Z,22.71
2023-05-24T08:11:14.668Z,22.90
2023-05-24T08:13:41.637Z,23.09
2023-05-24T08:16:08.539Z,23.15
2023-05-24T08:18:35.435Z,23.20
2023-05-24T08:21:02.545Z,23.42
2023-05-24T08:23:32.668Z,23.62
2023-05-24T08:25:59.949Z,23.78
2023-05-24T08:28:27.340Z,23.96
2023-05-24T08:30:54.261Z,24.10
2023-05-24T08:33:22.965Z,24.23
2023-05-24T08:35:51.269Z,24.35
2023-05-24T08:38:18.651Z,24.47
2023-05-24T08:40:46.031Z,24.59
2023-05-24T08:43:12.977Z,24.68
2023-05-24T08:45:40.211Z,24.79
2023-05-24T08:48:08.020Z,24.83
2023-05-24T08:50:35.455Z,24.98
2023-05-24T08:53:03.004Z,24.96
2023-05-24T08:55:39.718Z,24.99
2023-05-24T08:58:07.239Z,24.98
2023-05-24T09:00:34.003Z,24.93
2023-05-24T09:03:01.866Z,25.05
2023-05-24T09:05:30.280Z,25.11
2023-05-24T09:07:59.782Z,24.91
2023-05-24T09:10:35.422Z,25.01
2023-05-24T09:13:09.351Z,24.95
2023-05-24T09:15:36.790Z,25.07
2023-05-24T09:18:03.759Z,24.95
2023-05-24T09:20:30.674Z,24.99
2023-05-24T09:22:59.185Z,25.01
2023-05-24T09:25:28.173Z,25.09
2023-05-24T09:27:55.079Z,25.08
2023-05-24T09:30:22.455Z,25.13
2023-05-24T09:33:00.289Z,25.25
2023-05-24T09:35:28.408Z,25.28
2023-05-24T09:37:57.495Z,25.28
2023-05-24T09:40:24.552Z,25.26
2023-05-24T09:43:10.101Z,25.30
2023-05-24T09:45:47.358Z,25.30
2023-05-24T09:48:16.629Z,25.29
2023-05-24T09:50:47.640Z,25.38
2023-05-24T09:53:18.270Z,25.40
2023-05-24T09:55:45.471Z,25.48
2023-05-24T09:58:13.004Z,25.45
2023-05-24T10:00:41.638Z,25.53
2023-05-24T10:03:13.334Z,25.54
2023-05-24T10:05:44.822Z,25.65
2023-05-24T10:08:12.103Z,25.65
2023-05-24T10:10:38.904Z,25.65
2023-05-24T10:13:05.836Z,25.74
2023-05-24T10:15:32.729Z,25.76
2023-05-24T10:18:09.790Z,25.80
2023-05-24T10:20:41.462Z,25.72
2023-05-24T10:23:11.222Z,25.69
2023-05-24T10:25:44.990Z,25.63
2023-05-24T10:28:14.094Z,25.89
2023-05-24T10:31:09.234Z,26.00
2023-05-24T10:33:40.077Z,26.10
2023-05-24T10:36:09.995Z,26.15
2023-05-24T10:38:40.627Z,26.17
2023-05-24T10:41:13.154Z,25.91
2023-05-24T10:43:40.644Z,25.99
2023-05-24T10:46:10.744Z,26.05
2023-05-24T10:48:39.282Z,26.17
2023-05-24T10:51:35.482Z,26.05
2023-05-24T10:54:15.931Z,25.87
2023-05-24T10:56:46.844Z,25.93
2023-05-24T10:59:39.679Z,25.78
2023-05-24T11:02:16.513Z,25.97
2023-05-24T11:04:46.739Z,25.80
2023-05-24T11:07:19.389Z,25.85
2023-05-24T11:09:52.883Z,25.64
2023-05-24T11:12:23.629Z,25.57
2023-05-24T11:14:53.093Z,25.52
2023-05-24T11:17:23.953Z,25.67
2023-05-24T11:19:55.697Z,25.63
2023-05-24T11:22:23.551Z,25.69
2023-05-24T11:24:52.395Z,25.76
2023-05-24T11:27:19.597Z,25.86
2023-05-24T11:29:48.278Z,25.94
2023-05-24T11:32:17.187Z,25.78
2023-05-24T11:34:46.933Z,25.79
2023-05-24T11:37:16.782Z,25.73
2023-05-24T11:39:44.498Z,25.83
2023-05-24T11:42:11.295Z,25.86
2023-05-24T11:44:38.597Z,25.76
2023-05-24T11:47:07.548Z,25.59
2023-05-24T11:49:34.953Z,25.61
2023-05-24T11:52:02.616Z,25.77
2023-05-24T11:54:31.902Z,25.92
2023-05-24T11:56:58.889Z,25.73
2023-05-24T11:59:28.028Z,25.71
2023-05-24T12:02:05.680Z,25.78
2023-05-24T12:04:34.051Z,25.77
2023-05-24T12:07:01.707Z,25.78
2023-05-24T12:09:28.846Z,25.59
2023-05-24T12:11:57.662Z,25.94
2023-05-24T12:14:35.866Z,26.14
2023-05-24T12:17:02.751Z,26.12
2023-05-24T12:19:34.511Z,26.16
2023-05-24T12:22:08.235Z,26.04
2023-05-24T12:24:35.853Z,25.84
2023-05-24T12:27:07.629Z,25.74
2023-05-24T12:29:37.055Z,25.80
2023-05-24T12:32:04.359Z,25.97
2023-05-24T12:34:31.516Z,26.08
2023-05-24T12:36:59.541Z,26.08
2023-05-24T12:39:32.246Z,26.15
2023-05-24T12:42:01.950Z,26.01
2023-05-24T12:44:34.077Z,25.75
2023-05-24T12:47:02.637Z,25.92
2023-05-24T12:49:29.831Z,25.82
2023-05-24T12:51:57.275Z,25.62
2023-05-24T12:54:28.288Z,25.57
2023-05-24T12:56:56.975Z,25.52
2023-05-24T12:59:24.609Z,25.55
2023-05-24T13:01:52.160Z,25.69
2023-05-24T13:04:21.056Z,25.75
2023-05-24T13:06:48.348Z,25.67
2023-05-24T13:09:18.878Z,25.86
2023-05-24T13:11:45.794Z,25.62
2023-05-24T13:14:12.754Z,25.44
2023-05-24T13:16:39.835Z,25.54
2023-05-24T13:19:06.855Z,25.39
2023-05-24T13:21:34.010Z,25.30
2023-05-24T13:24:01.062Z,25.26
2023-05-24T13:26:27.993Z,25.28
2023-05-24T13:29:22.456Z,25.12
2023-05-24T13:31:41.969Z,25.13
2023-05-24T13:34:10.890Z,25.04
2023-05-24T13:36:40.741Z,24.76
2023-05-24T13:41:41.403Z,24.98
2023-05-24T13:44:08.806Z,24.79
2023-05-24T13:46:36.538Z,24.85
2023-05-24T13:49:03.749Z,25.01
2023-05-24T13:51:30.827Z,24.99
2023-05-24T13:53:57.898Z,25.12
2023-05-24T13:56:26.041Z,25.10
2023-05-24T13:58:53.719Z,25.28
2023-05-24T14:01:21.055Z,25.32
2023-05-24T14:03:48.138Z,25.36
2023-05-24T14:06:15.048Z,25.46
2023-05-24T14:08:42.660Z,25.49
2023-05-24T14:11:09.722Z,25.58
2023-05-24T14:16:08.780Z,25.69
2023-05-24T14:18:36.060Z,25.74
2023-05-24T14:21:03.047Z,25.81
2023-05-24T14:23:31.986Z,25.28
2023-05-24T14:25:59.258Z,25.24
2023-05-24T14:28:26.391Z,24.92
2023-05-24T14:30:53.316Z,25.05
2023-05-24T14:33:20.116Z,24.99
2023-05-24T14:35:47.222Z,24.78
2023-05-24T14:38:14.202Z,24.84
2023-05-24T14:40:41.076Z,24.67
2023-05-24T14:43:10.423Z,24.80
2023-05-24T14:45:42.300Z,24.83
2023-05-24T14:48:13.515Z,24.90
2023-05-24T14:50:41.274Z,24.75
2023-05-24T14:53:14.272Z,24.71
2023-05-24T14:55:43.419Z,24.75
2023-05-24T14:58:12.163Z,24.62
2023-05-24T15:00:39.986Z,24.67
2023-05-24T15:03:08.349Z,24.69
2023-05-24T15:05:36.300Z,24.68
2023-05-24T15:08:03.651Z,24.76
2023-05-24T15:10:30.604Z,24.79
2023-05-24T15:12:57.417Z,24.70
2023-05-24T15:15:24.255Z,24.74
2023-05-24T15:17:51.115Z,24.71
2023-05-24T15:20:19.598Z,24.76
2023-05-24T15:22:46.664Z,24.67
2023-05-24T15:25:13.774Z,24.72
2023-05-24T15:27:40.831Z,24.77
2023-05-24T15:30:08.217Z,24.79
2023-05-24T15:32:35.046Z,24.81
2023-05-24T15:35:02.116Z,24.78
2023-05-24T15:37:28.956Z,24.76
2023-05-24T15:39:55.812Z,24.67
2023-05-24T15:42:24.628Z,24.64
2023-05-24T15:44:51.778Z,24.62
2023-05-24T15:47:22.000Z,24.62
2023-05-24T15:49:49.851Z,24.67
2023-05-24T15:52:16.996Z,24.73
2023-05-24T15:54:44.107Z,24.63
2023-05-24T15:57:11.007Z,24.65
2023-05-24T15:59:38.721Z,24.66
2023-05-24T16:02:09.425Z,24.68
2023-05-24T16:04:36.386Z,24.56
2023-05-24T16:07:03.344Z,24.63
2023-05-24T16:09:30.228Z,24.47
2023-05-24T16:11:57.057Z,24.57
2023-05-24T16:14:26.082Z,24.51
2023-05-24T16:16:53.025Z,24.36
2023-05-24T16:19:20.029Z,24.42
2023-05-24T16:21:47.015Z,24.33
2023-05-24T16:24:13.892Z,24.25
2023-05-24T16:26:40.759Z,24.35
2023-05-24T16:29:07.641Z,24.38
2023-05-24T16:31:34.563Z,24.45
2023-05-24T16:34:01.558Z,24.44
2023-05-24T16:36:28.557Z,24.41
2023-05-24T16:38:55.512Z,24.43
2023-05-24T16:41:22.329Z,24.38
2023-05-24T16:43:49.351Z,24.41
2023-05-24T16:46:16.198Z,24.43
2023-05-24T16:48:43.101Z,24.46
2023-05-24T16:51:09.885Z,24.47
2023-05-24T16:53:36.844Z,24.27
2023-05-24T16:56:03.638Z,24.34
2023-05-24T16:58:30.988Z,24.33
2023-05-24T17:00:58.530Z,24.31
2023-05-24T17:03:29.773Z,24.27
2023-05-24T17:06:01.951Z,24.29
2023-05-24T17:08:33.495Z,24.21
2023-05-24T17:11:00.442Z,24.17
2023-05-24T17:13:30.312Z,24.05
2023-05-24T17:15:57.672Z,23.87
2023-05-24T17:18:28.436Z,23.90
2023-05-24T17:21:05.888Z,23.84
2023-05-24T17:23:35.011Z,23.68
2023-05-24T17:26:02.927Z,23.73
2023-05-24T17:28:30.446Z,23.70
2023-05-24T17:30:59.677Z,23.74
2023-05-24T17:33:28.848Z,23.69
2023-05-24T17:35:56.614Z,23.66
2023-05-24T17:38:25.299Z,23.71
2023-05-24T17:40:59.834Z,23.59
2023-05-24T17:43:32.434Z,23.68
2023-05-24T17:46:06.094Z,23.67
2023-05-24T17:48:34.975Z,23.73
2023-05-24T17:51:03.697Z,23.74
2023-05-24T17:53:32.459Z,23.76
2023-05-24T17:55:59.660Z,23.82
2023-05-24T17:58:27.000Z,23.82
2023-05-24T18:00:53.889Z,23.84
2023-05-24T18:03:20.986Z,23.84
2023-05-24T18:05:47.908Z,23.86
2023-05-24T18:08:14.791Z,23.89
2023-05-24T18:10:41.702Z,23.91
2023-05-24T18:13:09.442Z,23.91
2023-05-24T18:15:36.631Z,23.92
2023-05-24T18:18:04.006Z,23.94
2023-05-24T18:20:31.059Z,23.92
2023-05-24T18:22:58.170Z,23.91
2023-05-24T18:25:25.158Z,23.92
2023-05-24T18:27:51.920Z,23.95
2023-05-24T18:30:18.839Z,23.89
2023-05-24T18:33:02.761Z,23.90
2023-05-24T18:35:32.252Z,23.89
2023-05-24T18:37:59.197Z,23.66
2023-05-24T18:40:26.100Z,23.51
2023-05-24T18:42:52.954Z,23.56
2023-05-24T18:45:19.819Z,23.58
2023-05-24T18:47:46.862Z,23.48
2023-05-24T18:50:13.917Z,23.40
2023-05-24T18:52:40.812Z,23.31
2023-05-24T18:55:10.884Z,23.26
2023-05-24T18:57:38.541Z,23.26
2023-05-24T19:00:06.984Z,23.12
2023-05-24T19:02:40.472Z,23.07
2023-05-24T19:05:08.293Z,23.01
2023-05-24T19:07:36.146Z,23.08
2023-05-24T19:10:04.166Z,23.10
2023-05-24T19:12:31.159Z,23.09
2023-05-24T19:14:58.010Z,23.08
2023-05-24T19:17:25.368Z,22.98
2023-05-24T19:19:52.451Z,22.90
2023-05-24T19:22:19.581Z,22.77
2023-05-24T19:24:47.006Z,22.68
2023-05-24T19:27:14.111Z,22.67
2023-05-24T19:29:41.284Z,22.42
2023-05-24T19:32:08.475Z,22.48
2023-05-24T19:34:37.392Z,22.35
2023-05-24T19:37:04.594Z,22.39
2023-05-24T19:39:31.435Z,22.45
2023-05-24T19:41:58.270Z,22.51
2023-05-24T19:44:25.049Z,22.56
2023-05-24T19:46:51.944Z,22.48
2023-05-24T19:49:18.745Z,22.45
2023-05-24T19:51:45.698Z,22.45
2023-05-24T19:54:12.967Z,22.52
2023-05-24T19:56:39.840Z,22.53
2023-05-24T19:59:07.399Z,22.52
2023-05-24T20:01:34.412Z,22.46
2023-05-24T20:04:01.522Z,22.48
2023-05-24T20:06:28.674Z,22.42
2023-05-24T20:08:58.139Z,22.37
2023-05-24T20:11:27.478Z,22.33
2023-05-24T20:13:55.882Z,22.30
2023-05-24T20:16:23.091Z,22.28
2023-05-24T20:18:50.202Z,22.28
2023-05-24T20:21:18.555Z,22.28
2023-05-24T20:23:45.669Z,22.27
2023-05-24T20:26:12.515Z,22.27
2023-05-24T20:28:39.385Z,22.19
2023-05-24T20:31:06.601Z,22.17
2023-05-24T20:33:37.890Z,22.09
2023-05-24T20:36:05.515Z,22.01
2023-05-24T20:38:32.486Z,22.02
2023-05-24T20:40:59.963Z,22.01
2023-05-24T20:43:26.856Z,22.02
2023-05-24T20:45:54.329Z,22.05
2023-05-24T20:48:21.319Z,22.04
2023-05-24T20:50:48.341Z,22.01
2023-05-24T20:53:15.212Z,21.93
2023-05-24T20:55:42.197Z,21.97
2023-05-24T20:58:09.212Z,22.00
2023-05-24T21:00:37.590Z,21.97
2023-05-24T21:03:06.326Z,21.99
2023-05-24T21:05:36.355Z,21.99
2023-05-24T21:08:03.874Z,22.01
2023-05-24T21:10:31.004Z,21.93
2023-05-24T21:12:58.107Z,21.84
2023-05-24T21:15:25.070Z,21.80
2023-05-24T21:17:51.938Z,21.80
2023-05-24T21:20:18.802Z,21.79
2023-05-24T21:22:46.174Z,21.80
2023-05-24T21:25:13.068Z,21.83
2023-05-24T21:27:39.928Z,21.76
2023-05-24T21:30:07.541Z,21.70
2023-05-24T21:32:34.407Z,21.71
2023-05-24T21:35:01.208Z,21.69
2023-05-24T21:37:28.034Z,21.68
2023-05-24T21:39:54.847Z,21.62
2023-05-24T21:42:21.663Z,21.55
2023-05-24T21:44:48.399Z,21.37
2023-05-24T21:47:15.381Z,21.14
2023-05-24T21:49:42.238Z,21.01
2023-05-24T21:52:09.000Z,21.04
2023-05-24T21:54:35.801Z,21.06
2023-05-24T21:57:02.730Z,20.98
2023-05-24T21:59:29.542Z,20.85
2023-05-24T22:01:56.414Z,20.96
2023-05-24T22:04:23.383Z,20.96
2023-05-24T22:06:50.379Z,20.85
2023-05-24T22:09:17.253Z,20.71
2023-05-24T22:11:44.276Z,20.63
2023-05-24T22:14:11.144Z,20.55
2023-05-24T22:16:38.102Z,20.54
2023-05-24T22:19:14.873Z,20.62
2023-05-24T22:21:43.667Z,20.69
2023-05-24T22:24:10.803Z,20.69
2023-05-24T22:26:38.270Z,20.73
2023-05-24T22:29:05.186Z,20.75
2023-05-24T22:31:33.636Z,20.79
2023-05-24T22:34:03.967Z,20.81
2023-05-24T22:36:33.734Z,20.85
2023-05-24T22:39:01.681Z,20.77
2023-05-24T22:41:28.907Z,20.72
2023-05-24T22:43:56.784Z,20.81
2023-05-24T22:46:24.209Z,20.71
2023-05-24T22:48:58.083Z,20.69
2023-05-24T22:51:26.233Z,20.70
2023-05-24T22:53:53.034Z,20.62
2023-05-24T22:56:28.747Z,20.64
2023-05-24T22:58:56.730Z,20.65
2023-05-24T23:01:23.614Z,20.63
2023-05-24T23:03:50.701Z,20.71
2023-05-24T23:06:17.608Z,20.67
2023-05-24T23:08:44.458Z,20.64
2023-05-24T23:11:11.330Z,20.50
2023-05-24T23:13:38.229Z,20.42
2023-05-24T23:16:05.611Z,20.44
2023-05-24T23:18:33.108Z,20.31
2023-05-24T23:21:03.220Z,20.36
2023-05-24T23:23:30.292Z,20.42
2023-05-24T23:25:57.154Z,20.47
2023-05-24T23:28:24.040Z,20.45
2023-05-24T23:30:50.925Z,20.51
2023-05-24T23:33:17.720Z,20.44
2023-05-24T23:35:45.020Z,20.49
2023-05-24T23:38:16.087Z,20.48
2023-05-24T23:40:43.009Z,20.47
2023-05-24T23:43:09.836Z,20.30
2023-05-24T23:45:36.677Z,20.26
2023-05-24T23:48:03.781Z,20.28
2023-05-24T23:50:35.041Z,20.32
2023-05-24T23:53:07.793Z,20.38
2023-05-24T23:55:34.675Z,20.44
2023-05-24T23:58:01.536Z,20.42
